EZS1421 LFSB-LTBS
Flight info
| Callsign | EZS1421 |
|---|---|
| Flight time | N/A |
| Altitude | 35000 |
| Route | ELBEG Y715 AMRUP N491 DEGES N871 MADEB N606 ELMEM L607 GEDSO DCT URAVA DCT ROPUS DCT ETOBI DCT RIVUS DCT MEDUX/N0448F370 UM867 KOGAT DCT SKJ DCT DISOR UL608 FSK UN128 IMR UN127 KEKIK |
| Aircraft | A320/M-SDE3FGHIRWY/LB1 |
Departure
| Time | N/A |
|---|---|
| Airport | EuroAirport Basel–Mulhouse–Freiburg (LFSB) |
Arrival
| Time | 2026-04-14 16:14 |
|---|---|
| Airport | Dalaman International Airport (LTBS) |
| Time | Latitude | Longitude | Altitude | Speed | Heading |
|---|---|---|---|---|---|
| 2026-04-14 15:53 | 37.55734 | 27.84906 | 34888 ft | 488 kts | 143° |
| 2026-04-14 15:53 | 37.53216 | 27.87708 | 34655 ft | 476 kts | 144° |
| 2026-04-14 15:53 | 37.50737 | 27.90403 | 34410 ft | 467 kts | 145° |
| 2026-04-14 15:54 | 37.45761 | 27.95715 | 33901 ft | 468 kts | 146° |
| 2026-04-14 15:54 | 37.43318 | 27.98336 | 33227 ft | 458 kts | 145° |
| 2026-04-14 15:54 | 37.40919 | 28.00933 | 32401 ft | 452 kts | 145° |
| 2026-04-14 15:55 | 37.38559 | 28.03509 | 31619 ft | 446 kts | 144° |
| 2026-04-14 15:55 | 37.36238 | 28.06052 | 30857 ft | 440 kts | 144° |
| 2026-04-14 15:55 | 37.33947 | 28.08559 | 30047 ft | 434 kts | 144° |
| 2026-04-14 15:55 | 37.31683 | 28.11035 | 29201 ft | 428 kts | 144° |
| 2026-04-14 15:56 | 37.30206 | 28.12649 | 28690 ft | 423 kts | 144° |
| 2026-04-14 15:56 | 37.27289 | 28.15827 | 27656 ft | 414 kts | 144° |
| 2026-04-14 15:56 | 37.25126 | 28.18169 | 26912 ft | 408 kts | 144° |
| 2026-04-14 15:56 | 37.22989 | 28.20472 | 26200 ft | 401 kts | 144° |
| 2026-04-14 15:57 | 37.20882 | 28.22734 | 25487 ft | 395 kts | 144° |
| 2026-04-14 15:57 | 37.18809 | 28.24956 | 24771 ft | 389 kts | 144° |
| 2026-04-14 15:57 | 37.17427 | 28.26440 | 24318 ft | 385 kts | 144° |
| 2026-04-14 15:57 | 37.15432 | 28.28586 | 23649 ft | 380 kts | 144° |
| 2026-04-14 15:58 | 37.13435 | 28.30740 | 22878 ft | 375 kts | 143° |
| 2026-04-14 15:58 | 37.11592 | 28.33038 | 22129 ft | 374 kts | 132° |
| 2026-04-14 15:58 | 37.10184 | 28.35763 | 21432 ft | 373 kts | 118° |
| 2026-04-14 15:58 | 37.09279 | 28.38801 | 20785 ft | 374 kts | 105° |
| 2026-04-14 15:59 | 37.08912 | 28.42024 | 20344 ft | 373 kts | 91° |
| 2026-04-14 15:59 | 37.09081 | 28.45249 | 19885 ft | 372 kts | 79° |
| 2026-04-14 15:59 | 37.09539 | 28.48420 | 19618 ft | 366 kts | 79° |
| 2026-04-14 15:59 | 37.09986 | 28.51533 | 19120 ft | 361 kts | 79° |
| 2026-04-14 16:00 | 37.10424 | 28.54613 | 18512 ft | 356 kts | 79° |
| 2026-04-14 16:00 | 37.10831 | 28.57506 | 17951 ft | 349 kts | 79° |
| 2026-04-14 16:00 | 37.11250 | 28.60482 | 17325 ft | 344 kts | 79° |
| 2026-04-14 16:00 | 37.11666 | 28.63411 | 16929 ft | 340 kts | 79° |
| 2026-04-14 16:01 | 37.12082 | 28.66331 | 16507 ft | 340 kts | 79° |
| 2026-04-14 16:01 | 37.12488 | 28.69210 | 16104 ft | 330 kts | 79° |
| 2026-04-14 16:01 | 37.12881 | 28.72003 | 15719 ft | 323 kts | 79° |
| 2026-04-14 16:01 | 37.13269 | 28.74759 | 15311 ft | 319 kts | 79° |
| 2026-04-14 16:02 | 37.13656 | 28.77490 | 14915 ft | 318 kts | 79° |
| 2026-04-14 16:02 | 37.14043 | 28.80231 | 14479 ft | 320 kts | 79° |
| 2026-04-14 16:02 | 37.14429 | 28.82979 | 14043 ft | 321 kts | 79° |
| 2026-04-14 16:02 | 37.14813 | 28.85732 | 13540 ft | 319 kts | 79° |
| 2026-04-14 16:03 | 37.15191 | 28.88440 | 13085 ft | 312 kts | 79° |
| 2026-04-14 16:03 | 37.15518 | 28.91097 | 12632 ft | 305 kts | 87° |
| 2026-04-14 16:03 | 37.15380 | 28.93711 | 12184 ft | 298 kts | 103° |
| 2026-04-14 16:03 | 37.14706 | 28.96131 | 11724 ft | 291 kts | 120° |
| 2026-04-14 16:04 | 37.13582 | 28.98190 | 11250 ft | 284 kts | 136° |
| 2026-04-14 16:04 | 37.12161 | 28.99855 | 10793 ft | 277 kts | 141° |
| 2026-04-14 16:04 | 37.10732 | 29.01453 | 10318 ft | 274 kts | 141° |
| 2026-04-14 16:04 | 37.09322 | 29.03033 | 9838 ft | 270 kts | 141° |
| 2026-04-14 16:05 | 37.07760 | 29.04234 | 9350 ft | 259 kts | 164° |
| 2026-04-14 16:05 | 37.06025 | 29.04532 | 8914 ft | 247 kts | 187° |
| 2026-04-14 16:05 | 37.04392 | 29.03978 | 8324 ft | 245 kts | 210° |
| 2026-04-14 16:05 | 37.03064 | 29.02697 | 7704 ft | 247 kts | 226° |
| 2026-04-14 16:06 | 37.01830 | 29.01149 | 7041 ft | 251 kts | 225° |
| 2026-04-14 16:06 | 37.00581 | 28.99624 | 6431 ft | 254 kts | 224° |
| 2026-04-14 16:06 | 36.99321 | 28.98093 | 5932 ft | 251 kts | 224° |
| 2026-04-14 16:06 | 36.98074 | 28.96580 | 5413 ft | 249 kts | 224° |
| 2026-04-14 16:07 | 36.96849 | 28.95090 | 5085 ft | 240 kts | 224° |
| 2026-04-14 16:07 | 36.95694 | 28.93686 | 4931 ft | 224 kts | 224° |
| 2026-04-14 16:07 | 36.94615 | 28.92377 | 4840 ft | 207 kts | 224° |
| 2026-04-14 16:07 | 36.93634 | 28.91187 | 4737 ft | 188 kts | 224° |
| 2026-04-14 16:08 | 36.92738 | 28.90099 | 4652 ft | 173 kts | 224° |
| 2026-04-14 16:08 | 36.91899 | 28.89079 | 4598 ft | 163 kts | 224° |
| 2026-04-14 16:08 | 36.91118 | 28.88130 | 4523 ft | 152 kts | 224° |
| 2026-04-14 16:08 | 36.90365 | 28.87216 | 4442 ft | 148 kts | 224° |
| 2026-04-14 16:09 | 36.89627 | 28.86320 | 4377 ft | 148 kts | 224° |
| 2026-04-14 16:09 | 36.88843 | 28.85498 | 4305 ft | 147 kts | 211° |
| 2026-04-14 16:09 | 36.87896 | 28.85020 | 4164 ft | 148 kts | 199° |
| 2026-04-14 16:09 | 36.86921 | 28.84629 | 3858 ft | 146 kts | 197° |
| 2026-04-14 16:10 | 36.85951 | 28.84271 | 3591 ft | 144 kts | 196° |
| 2026-04-14 16:10 | 36.84988 | 28.83930 | 3328 ft | 143 kts | 195° |
| 2026-04-14 16:10 | 36.84031 | 28.83597 | 3067 ft | 143 kts | 195° |
| 2026-04-14 16:10 | 36.83074 | 28.83267 | 2804 ft | 143 kts | 195° |
| 2026-04-14 16:11 | 36.82114 | 28.82931 | 2439 ft | 145 kts | 196° |
| 2026-04-14 16:11 | 36.81131 | 28.82588 | 1986 ft | 149 kts | 196° |
| 2026-04-14 16:11 | 36.80139 | 28.82243 | 1656 ft | 146 kts | 195° |
| 2026-04-14 16:11 | 36.79176 | 28.81921 | 1428 ft | 141 kts | 195° |
| 2026-04-14 16:12 | 36.78234 | 28.81604 | 1267 ft | 140 kts | 193° |
| 2026-04-14 16:12 | 36.77300 | 28.81286 | 1040 ft | 141 kts | 195° |
| 2026-04-14 16:12 | 36.76359 | 28.80966 | 810 ft | 140 kts | 195° |
| 2026-04-14 16:12 | 36.75423 | 28.80642 | 614 ft | 139 kts | 195° |
| 2026-04-14 16:13 | 36.74491 | 28.80326 | 425 ft | 138 kts | 194° |
| 2026-04-14 16:13 | 36.73565 | 28.80019 | 243 ft | 137 kts | 197° |
| 2026-04-14 16:13 | 36.72645 | 28.79706 | 73 ft | 136 kts | 196° |
| 2026-04-14 16:13 | 36.71775 | 28.79410 | 16 ft | 119 kts | 197° |
| 2026-04-14 16:14 | 36.71114 | 28.79182 | 13 ft | 74 kts | 195° |
| 2026-04-14 16:14 | 36.70772 | 28.79063 | 13 ft | 33 kts | 196° |
| 2026-04-14 16:14 | 36.70620 | 28.78930 | 13 ft | 21 kts | 225° |
| 2026-04-14 16:14 | 36.80976 | 28.82534 | 1926 ft | 149 kts | 196° |
| 2026-04-14 16:15 | 36.79986 | 28.82193 | 1602 ft | 146 kts | 195° |
| 2026-04-14 16:15 | 36.75980 | 28.80836 | 724 ft | 140 kts | 195° |
| 2026-04-14 16:15 | 36.75045 | 28.80514 | 541 ft | 139 kts | 195° |
| 2026-04-14 16:15 | 36.74114 | 28.80206 | 345 ft | 138 kts | 195° |
| 2026-04-14 16:16 | 36.73192 | 28.79891 | 170 ft | 137 kts | 196° |
| 2026-04-14 16:16 | 36.72279 | 28.79578 | 29 ft | 133 kts | 195° |
| 2026-04-14 16:16 | 36.71470 | 28.79305 | 13 ft | 104 kts | 195° |
| 2026-04-14 16:16 | 36.70976 | 28.79134 | 13 ft | 57 kts | 195° |